createdAt,value
2022-09-22T00:01:37.693Z,16.30
2022-09-22T00:04:11.095Z,16.20
2022-09-22T00:06:43.476Z,16.20
2022-09-22T00:09:14.175Z,16.20
2022-09-22T00:11:44.515Z,16.20
2022-09-22T00:14:15.700Z,16.10
2022-09-22T00:16:47.034Z,16.10
2022-09-22T00:19:20.287Z,16.10
2022-09-22T00:26:48.531Z,16.10
2022-09-22T00:36:48.242Z,16.00
2022-09-22T00:39:18.247Z,15.70
2022-09-22T00:41:49.678Z,15.80
2022-09-22T00:44:41.658Z,15.80
2022-09-22T00:47:40.978Z,15.80
2022-09-22T00:50:17.364Z,15.80
2022-09-22T01:56:06.539Z,15.60
2022-09-22T01:58:40.431Z,15.40
2022-09-22T02:01:15.167Z,15.40
2022-09-22T02:03:50.179Z,15.40
2022-09-22T02:06:24.195Z,15.40
2022-09-22T02:08:57.658Z,15.40
2022-09-22T02:11:26.219Z,15.40
2022-09-22T02:13:54.884Z,15.30
2022-09-22T02:16:27.601Z,15.40
2022-09-22T02:19:11.996Z,15.40
2022-09-22T02:21:43.043Z,15.30
2022-09-22T02:24:31.052Z,15.30
2022-09-22T02:27:01.850Z,15.30
2022-09-22T02:29:35.339Z,15.30
2022-09-22T02:32:10.874Z,15.30
2022-09-22T02:34:39.714Z,15.20
2022-09-22T02:37:20.584Z,15.10
2022-09-22T02:39:57.708Z,15.10
2022-09-22T02:42:33.332Z,15.10
2022-09-22T02:45:10.143Z,15.10
2022-09-22T02:47:44.549Z,15.20
2022-09-22T02:50:15.818Z,15.20
2022-09-22T02:52:44.307Z,15.10
2022-09-22T02:55:14.796Z,15.10
2022-09-22T02:57:43.742Z,15.10
2022-09-22T03:00:13.494Z,15.10
2022-09-22T03:02:43.097Z,15.10
2022-09-22T03:05:11.510Z,15.00
2022-09-22T03:07:40.351Z,14.90
2022-09-22T03:10:10.689Z,14.90
2022-09-22T03:13:02.294Z,15.00
2022-09-22T03:15:30.936Z,15.00
2022-09-22T03:18:00.623Z,15.00
2022-09-22T03:20:29.027Z,14.90
2022-09-22T03:22:57.304Z,14.90
2022-09-22T03:25:25.574Z,14.90
2022-09-22T03:27:53.849Z,14.80
2022-09-22T03:30:22.100Z,14.80
2022-09-22T03:32:50.341Z,14.80
2022-09-22T03:35:20.033Z,14.80
2022-09-22T03:37:48.310Z,14.80
2022-09-22T03:40:16.882Z,14.80
2022-09-22T03:42:45.948Z,14.80
2022-09-22T03:45:15.065Z,14.80
2022-09-22T03:47:43.351Z,14.70
2022-09-22T03:50:12.104Z,14.70
2022-09-22T03:52:43.832Z,14.70
2022-09-22T03:55:12.659Z,14.70
2022-09-22T03:57:40.968Z,14.70
2022-09-22T04:00:11.133Z,14.60
2022-09-22T04:02:39.434Z,14.60
2022-09-22T04:05:09.175Z,14.60
2022-09-22T04:07:37.498Z,14.70
2022-09-22T04:10:08.391Z,14.60
2022-09-22T04:12:37.285Z,14.60
2022-09-22T04:15:07.265Z,14.60
2022-09-22T04:17:37.052Z,14.60
2022-09-22T04:20:07.115Z,14.60
2022-09-22T04:22:35.689Z,14.60
2022-09-22T04:25:04.064Z,14.60
2022-09-22T04:27:33.679Z,14.50
2022-09-22T04:30:01.971Z,14.50
2022-09-22T04:32:30.236Z,14.50
2022-09-22T04:34:58.532Z,14.40
2022-09-22T04:37:26.767Z,14.40
2022-09-22T04:39:55.614Z,14.40
2022-09-22T04:42:23.893Z,14.40
2022-09-22T04:44:57.130Z,14.40
2022-09-22T04:47:25.386Z,14.40
2022-09-22T04:49:53.777Z,14.40
2022-09-22T04:52:22.138Z,14.40
2022-09-22T04:54:50.415Z,14.40
2022-09-22T04:57:20.553Z,14.40
2022-09-22T04:59:49.032Z,14.40
2022-09-22T05:02:19.146Z,14.40
2022-09-22T05:04:47.459Z,14.30
2022-09-22T05:07:16.026Z,14.30
2022-09-22T05:09:44.308Z,14.30
2022-09-22T05:12:12.563Z,14.30
2022-09-22T05:14:40.845Z,14.20
2022-09-22T05:17:09.822Z,14.30
2022-09-22T05:19:39.492Z,14.30
2022-09-22T05:22:07.751Z,14.20
2022-09-22T05:24:36.027Z,14.20
2022-09-22T05:27:04.833Z,14.20
2022-09-22T05:29:33.075Z,14.20
2022-09-22T05:32:01.488Z,14.20
2022-09-22T05:34:29.770Z,14.30
2022-09-22T05:36:59.429Z,14.30
2022-09-22T05:39:27.726Z,14.30
2022-09-22T05:41:55.989Z,14.30
2022-09-22T05:44:24.687Z,14.30
2022-09-22T05:46:52.962Z,14.30
2022-09-22T05:49:21.211Z,14.30
2022-09-22T05:51:52.197Z,14.20
2022-09-22T05:54:23.447Z,14.30
2022-09-22T05:56:52.056Z,14.60
2022-09-22T05:59:20.313Z,15.10
2022-09-22T06:01:48.709Z,15.40
2022-09-22T06:04:17.002Z,16.00
2022-09-22T06:06:45.275Z,16.30
2022-09-22T06:09:13.600Z,16.60
2022-09-22T06:11:43.255Z,16.70
2022-09-22T06:14:11.494Z,16.90
2022-09-22T06:16:40.105Z,17.10
2022-09-22T06:19:08.544Z,17.20
2022-09-22T06:24:06.858Z,17.60
2022-09-22T06:26:35.170Z,17.70
2022-09-22T06:29:04.861Z,17.90
2022-09-22T06:31:33.195Z,18.00
2022-09-22T06:34:04.348Z,18.20
2022-09-22T06:36:36.068Z,18.20
2022-09-22T06:39:05.447Z,18.30
2022-09-22T06:41:34.983Z,18.50
2022-09-22T06:44:05.375Z,18.30
2022-09-22T06:46:35.185Z,18.50
2022-09-22T06:49:03.422Z,18.70
2022-09-22T06:51:34.025Z,17.30
2022-09-22T06:54:05.383Z,16.80
2022-09-22T06:56:39.860Z,16.20
2022-09-22T06:59:11.139Z,16.90
2022-09-22T07:01:40.034Z,16.70
2022-09-22T07:04:08.852Z,16.40
2022-09-22T07:06:37.961Z,17.00
2022-09-22T07:09:06.821Z,17.70
2022-09-22T07:11:39.552Z,18.00
2022-09-22T07:14:12.654Z,18.10
2022-09-22T07:16:41.382Z,18.20
2022-09-22T07:19:10.092Z,17.80
2022-09-22T07:21:38.424Z,17.40
2022-09-22T07:24:08.711Z,16.00
2022-09-22T07:26:40.612Z,15.20
2022-09-22T07:29:13.387Z,15.60
2022-09-22T07:31:43.378Z,14.80
2022-09-22T07:34:12.802Z,14.70
2022-09-22T07:36:41.676Z,14.60
2022-09-22T07:39:11.541Z,15.40
2022-09-22T07:41:43.124Z,15.60
2022-09-22T07:44:34.791Z,15.60
2022-09-22T07:47:04.839Z,14.40
2022-09-22T07:49:33.688Z,14.60
2022-09-22T07:52:02.009Z,14.00
2022-09-22T07:54:30.717Z,14.70
2022-09-22T07:56:59.356Z,14.60
2022-09-22T07:59:29.048Z,14.10
2022-09-22T08:01:57.372Z,14.80
2022-09-22T08:04:26.452Z,14.70
2022-09-22T08:06:56.413Z,15.50
2022-09-22T08:09:26.053Z,15.40
2022-09-22T08:11:55.154Z,16.20
2022-09-22T08:14:24.243Z,16.00
2022-09-22T08:16:54.689Z,15.60
2022-09-22T08:19:24.705Z,15.80
2022-09-22T08:21:54.851Z,16.50
2022-09-22T08:24:24.160Z,15.70
2022-09-22T08:26:55.820Z,15.90
2022-09-22T08:29:24.868Z,15.30
2022-09-22T08:31:54.715Z,15.90
2022-09-22T08:34:23.207Z,16.10
2022-09-22T08:36:51.515Z,16.90
2022-09-22T08:39:20.003Z,17.80
2022-09-22T08:42:05.940Z,18.00
2022-09-22T08:44:42.611Z,17.80
2022-09-22T08:47:41.516Z,17.70
2022-09-22T08:50:59.394Z,17.60
2022-09-22T08:53:32.323Z,17.40
2022-09-22T08:56:14.547Z,17.50
2022-09-22T08:58:49.472Z,18.10
2022-09-22T09:01:43.853Z,17.70
2022-09-22T09:04:56.191Z,18.30
2022-09-22T09:07:37.240Z,18.00
2022-09-22T09:10:28.341Z,17.80
2022-09-22T09:13:23.119Z,17.60
2022-09-22T09:16:08.514Z,17.90
2022-09-22T09:18:42.773Z,18.50
2022-09-22T09:21:16.640Z,18.20
2022-09-22T09:26:37.338Z,18.70
2022-09-22T09:29:12.293Z,17.70
2022-09-22T09:31:46.248Z,17.70
2022-09-22T09:34:17.839Z,17.70
2022-09-22T09:36:51.262Z,18.40
2022-09-22T09:39:32.873Z,18.60
2022-09-22T09:42:02.981Z,18.30
2022-09-22T09:44:40.089Z,18.10
2022-09-22T09:47:19.596Z,18.80
2022-09-22T09:49:52.669Z,19.40
2022-09-22T09:52:26.775Z,19.10
2022-09-22T09:54:56.320Z,19.20
2022-09-22T09:57:28.216Z,19.30
2022-09-22T10:00:31.770Z,19.70
2022-09-22T10:03:13.490Z,19.90
2022-09-22T10:05:41.920Z,19.40
2022-09-22T10:08:21.145Z,19.30
2022-09-22T10:10:49.890Z,19.30
2022-09-22T10:13:32.181Z,19.00
2022-09-22T10:16:23.207Z,18.60
2022-09-22T10:19:03.000Z,19.20
2022-09-22T10:21:31.380Z,19.20
2022-09-22T10:24:02.336Z,19.20
2022-09-22T10:26:33.155Z,19.90
2022-09-22T10:29:16.710Z,20.10
2022-09-22T10:32:06.431Z,20.00
2022-09-22T10:34:37.924Z,20.00
2022-09-22T10:37:10.714Z,19.60
2022-09-22T10:39:47.109Z,19.70
2022-09-22T10:42:32.665Z,19.90
2022-09-22T10:45:07.058Z,19.70
2022-09-22T10:47:51.387Z,19.90
2022-09-22T10:50:50.439Z,19.00
2022-09-22T10:53:51.658Z,19.90
2022-09-22T10:56:33.067Z,20.00
2022-09-22T10:59:42.987Z,19.80
2022-09-22T11:02:44.918Z,20.20
2022-09-22T11:06:01.516Z,20.60
2022-09-22T11:08:56.165Z,19.50
2022-09-22T11:11:51.329Z,19.70
2022-09-22T11:14:36.327Z,19.90
2022-09-22T11:17:22.095Z,19.10
2022-09-22T11:20:14.045Z,19.80
2022-09-22T11:23:07.405Z,19.90
2022-09-22T11:25:58.708Z,20.30
2022-09-22T11:28:47.530Z,20.00
2022-09-22T11:31:28.695Z,19.60
2022-09-22T11:34:27.615Z,19.40
2022-09-22T11:37:25.678Z,19.20
2022-09-22T11:40:28.093Z,19.00
2022-09-22T11:43:11.360Z,19.50
2022-09-22T11:45:53.158Z,18.90
2022-09-22T11:48:39.323Z,19.40
2022-09-22T11:51:28.727Z,19.80
2022-09-22T11:54:22.948Z,19.20
2022-09-22T11:56:55.896Z,19.90
2022-09-22T11:59:38.593Z,19.30
2022-09-22T12:02:22.392Z,20.00
2022-09-22T12:04:57.320Z,20.00
2022-09-22T12:07:30.224Z,20.10
2022-09-22T12:10:02.084Z,19.20
2022-09-22T12:12:33.203Z,20.30
2022-09-22T12:15:16.663Z,20.30
2022-09-22T12:17:52.725Z,20.20
2022-09-22T12:20:37.427Z,20.40
2022-09-22T12:23:19.962Z,20.10
2022-09-22T12:25:54.051Z,19.80
2022-09-22T12:28:26.827Z,19.40
2022-09-22T12:31:06.055Z,19.60
2022-09-22T12:33:38.716Z,20.10
2022-09-22T12:36:08.315Z,20.00
2022-09-22T12:38:37.319Z,20.40
2022-09-22T12:41:06.617Z,20.60
2022-09-22T12:43:36.609Z,20.60
2022-09-22T12:46:27.904Z,20.40
2022-09-22T12:48:57.941Z,19.50
2022-09-22T12:51:33.275Z,19.90
2022-09-22T12:54:41.325Z,20.40
2022-09-22T12:57:31.373Z,20.70
2022-09-22T13:00:32.219Z,20.20
2022-09-22T13:03:23.906Z,19.70
2022-09-22T13:05:54.809Z,19.80
2022-09-22T13:08:47.171Z,19.90
2022-09-22T13:11:15.537Z,19.80
2022-09-22T13:13:47.891Z,19.60
2022-09-22T13:16:36.662Z,19.40
2022-09-22T13:19:14.857Z,20.00
2022-09-22T13:21:44.480Z,20.40
2022-09-22T13:24:27.382Z,20.20
2022-09-22T13:27:05.852Z,19.60
2022-09-22T13:29:35.026Z,20.30
2022-09-22T13:32:26.683Z,20.80
2022-09-22T13:34:55.463Z,20.30
2022-09-22T13:37:25.880Z,19.60
2022-09-22T13:39:55.622Z,19.60
2022-09-22T13:42:32.502Z,19.50
2022-09-22T13:45:06.427Z,19.80
2022-09-22T13:47:36.001Z,19.90
2022-09-22T13:50:08.194Z,20.30
2022-09-22T13:52:40.429Z,20.30
2022-09-22T13:55:14.972Z,19.90
2022-09-22T13:57:43.808Z,20.00
2022-09-22T14:00:24.591Z,20.40
2022-09-22T14:02:53.835Z,20.00
2022-09-22T14:05:26.897Z,19.70
2022-09-22T14:08:17.190Z,20.00
2022-09-22T14:10:49.464Z,20.20
2022-09-22T14:13:44.717Z,19.90
2022-09-22T14:16:22.282Z,19.80
2022-09-22T14:18:54.883Z,19.80
2022-09-22T14:21:23.616Z,19.80
2022-09-22T14:23:53.621Z,20.20
2022-09-22T14:26:33.398Z,20.80
2022-09-22T14:29:15.819Z,19.80
2022-09-22T14:31:48.213Z,20.30
2022-09-22T14:34:24.597Z,20.50
2022-09-22T14:36:54.779Z,20.10
2022-09-22T14:39:31.872Z,20.30
2022-09-22T14:42:11.824Z,20.10
2022-09-22T14:44:45.737Z,20.50
2022-09-22T14:47:27.351Z,20.60
2022-09-22T14:50:19.193Z,19.90
2022-09-22T14:53:01.130Z,20.40
2022-09-22T14:55:35.932Z,20.40
2022-09-22T14:58:09.610Z,20.00
2022-09-22T15:00:55.468Z,19.80
2022-09-22T15:03:29.928Z,20.00
2022-09-22T15:06:08.924Z,20.20
2022-09-22T15:08:37.824Z,19.80
2022-09-22T15:11:08.061Z,19.80
2022-09-22T15:13:41.777Z,19.90
2022-09-22T15:16:37.827Z,19.70
2022-09-22T15:19:07.854Z,19.80
2022-09-22T15:21:47.464Z,20.00
2022-09-22T15:24:21.195Z,20.10
2022-09-22T15:26:50.864Z,19.90
2022-09-22T15:29:19.102Z,20.40
2022-09-22T15:31:47.806Z,20.20
2022-09-22T15:34:16.516Z,20.10
2022-09-22T15:36:50.049Z,20.10
2022-09-22T15:39:23.114Z,20.00
2022-09-22T15:41:54.351Z,19.80
2022-09-22T15:44:22.817Z,19.70
2022-09-22T15:46:54.480Z,19.80
2022-09-22T15:49:26.510Z,19.70
2022-09-22T15:51:56.567Z,19.20
2022-09-22T15:54:26.183Z,19.20
2022-09-22T15:56:57.566Z,19.00
2022-09-22T15:59:28.969Z,19.00
2022-09-22T16:01:59.494Z,18.90
2022-09-22T16:04:34.254Z,19.00
2022-09-22T16:07:08.485Z,19.00
2022-09-22T16:09:38.654Z,18.90
2022-09-22T16:12:11.150Z,19.00
2022-09-22T16:14:41.561Z,19.00
2022-09-22T16:17:09.784Z,19.00
2022-09-22T16:19:38.056Z,19.20
2022-09-22T16:22:06.351Z,18.90
2022-09-22T16:24:34.590Z,18.90
2022-09-22T16:27:04.162Z,18.80
2022-09-22T16:29:37.430Z,18.90
2022-09-22T16:32:05.881Z,18.80
2022-09-22T16:34:34.887Z,18.80
2022-09-22T16:37:03.501Z,18.90
2022-09-22T16:39:31.779Z,18.50
2022-09-22T16:42:00.025Z,18.60
2022-09-22T16:44:28.298Z,18.50
2022-09-22T16:46:58.447Z,18.40
2022-09-22T16:49:27.124Z,18.20
2022-09-22T16:51:55.602Z,18.40
2022-09-22T16:54:24.794Z,18.70
2022-09-22T16:56:54.275Z,18.60
2022-09-22T16:59:24.211Z,18.80
2022-09-22T17:01:52.587Z,18.70
2022-09-22T17:04:22.290Z,18.70
2022-09-22T17:06:50.869Z,18.90
2022-09-22T17:09:19.582Z,18.80
2022-09-22T17:11:49.368Z,19.20
2022-09-22T17:14:21.175Z,19.10
2022-09-22T17:16:52.139Z,19.10
2022-09-22T17:19:23.943Z,19.20
2022-09-22T17:21:55.199Z,19.40
2022-09-22T17:24:25.047Z,19.50
2022-09-22T17:26:55.870Z,19.40
2022-09-22T17:29:26.693Z,19.50
2022-09-22T17:31:57.633Z,19.50
2022-09-22T17:34:28.725Z,19.60
2022-09-22T17:36:57.326Z,19.40
2022-09-22T17:39:27.093Z,19.40
2022-09-22T17:41:55.707Z,19.50
2022-09-22T17:44:28.520Z,19.50
2022-09-22T17:47:14.784Z,19.50
2022-09-22T17:50:02.089Z,19.50
2022-09-22T17:52:47.640Z,19.40
2022-09-22T17:55:22.541Z,19.40
2022-09-22T17:57:52.697Z,19.30
2022-09-22T18:00:23.497Z,19.30
2022-09-22T18:02:54.929Z,19.30
2022-09-22T18:05:27.339Z,19.20
2022-09-22T18:07:58.521Z,19.20
2022-09-22T18:10:34.233Z,19.30
2022-09-22T18:13:04.339Z,19.20
2022-09-22T18:15:32.646Z,19.00
2022-09-22T18:18:00.912Z,19.00
2022-09-22T18:20:34.953Z,18.90
2022-09-22T18:23:03.681Z,18.90
2022-09-22T18:25:33.941Z,18.90
2022-09-22T18:28:03.926Z,19.00
2022-09-22T18:30:33.139Z,19.00
2022-09-22T18:33:01.996Z,19.00
2022-09-22T18:35:31.860Z,18.90
2022-09-22T18:38:00.338Z,18.90
2022-09-22T18:40:30.149Z,18.90
2022-09-22T18:42:58.430Z,19.00
2022-09-22T18:45:27.111Z,19.00
2022-09-22T18:47:59.471Z,18.70
2022-09-22T18:50:35.692Z,18.80
2022-09-22T18:53:05.635Z,18.70
2022-09-22T18:55:33.901Z,18.70
2022-09-22T18:58:02.298Z,18.60
2022-09-22T19:00:31.539Z,18.00
2022-09-22T19:03:00.294Z,18.30
2022-09-22T19:05:28.738Z,18.50
2022-09-22T19:08:00.408Z,18.50
2022-09-22T19:10:30.023Z,18.70
2022-09-22T19:12:59.606Z,18.60
2022-09-22T19:15:28.108Z,18.60
2022-09-22T19:17:56.341Z,18.60
2022-09-22T19:20:24.934Z,18.60
2022-09-22T19:22:54.082Z,18.70
2022-09-22T19:25:23.570Z,18.70
2022-09-22T19:27:54.172Z,18.60
2022-09-22T19:30:25.773Z,18.60
2022-09-22T19:32:56.877Z,18.60
2022-09-22T19:35:25.478Z,18.60
2022-09-22T19:37:53.792Z,18.60
2022-09-22T19:40:24.422Z,18.60
2022-09-22T19:42:55.238Z,18.60
2022-09-22T19:45:25.001Z,18.60
2022-09-22T19:47:56.328Z,18.50
2022-09-22T19:50:24.899Z,18.40
2022-09-22T19:52:53.510Z,18.50
2022-09-22T19:55:22.120Z,18.40
2022-09-22T19:57:52.333Z,18.40
2022-09-22T20:00:26.051Z,18.40
2022-09-22T20:02:58.644Z,18.30
2022-09-22T20:05:31.573Z,18.40
2022-09-22T20:07:59.962Z,18.30
2022-09-22T20:10:28.850Z,18.30
2022-09-22T20:12:57.105Z,18.30
2022-09-22T20:15:28.080Z,18.30
2022-09-22T20:17:56.342Z,18.30
2022-09-22T20:20:26.963Z,18.20
2022-09-22T20:23:00.488Z,18.30
2022-09-22T20:25:31.860Z,18.20
2022-09-22T20:28:00.403Z,18.30
2022-09-22T20:30:30.066Z,18.20
2022-09-22T20:32:59.085Z,18.10
2022-09-22T20:35:27.669Z,18.10
2022-09-22T20:37:59.291Z,18.10
2022-09-22T20:40:29.120Z,18.20
2022-09-22T20:42:58.093Z,18.20
2022-09-22T20:45:27.322Z,18.10
2022-09-22T20:47:57.101Z,18.20
2022-09-22T20:50:25.647Z,18.10
2022-09-22T20:52:55.420Z,18.00
2022-09-22T20:55:23.827Z,18.00
2022-09-22T20:57:52.544Z,17.90
2022-09-22T21:00:21.052Z,17.90
2022-09-22T21:02:49.395Z,17.90
2022-09-22T21:05:19.411Z,17.90
2022-09-22T21:07:47.647Z,17.90
2022-09-22T21:10:33.384Z,17.90
2022-09-22T21:13:04.030Z,17.80
2022-09-22T21:15:32.302Z,17.80
2022-09-22T21:18:00.610Z,17.90
2022-09-22T21:20:30.256Z,17.80
2022-09-22T21:22:58.508Z,17.70
2022-09-22T21:25:26.780Z,17.70
2022-09-22T21:27:55.017Z,17.70
2022-09-22T21:30:24.337Z,17.70
2022-09-22T21:32:52.557Z,17.70
2022-09-22T21:35:20.905Z,17.70
2022-09-22T21:37:50.656Z,17.60
2022-09-22T21:40:19.164Z,17.70
2022-09-22T21:42:47.465Z,17.60
2022-09-22T21:45:15.971Z,17.60
2022-09-22T21:47:44.552Z,17.60
2022-09-22T21:50:12.935Z,17.60
2022-09-22T21:52:41.192Z,17.60
2022-09-22T21:55:11.171Z,17.40
2022-09-22T21:57:39.384Z,17.50
2022-09-22T22:00:09.998Z,17.50
2022-09-22T22:02:58.752Z,17.40
2022-09-22T22:05:30.257Z,17.50
2022-09-22T22:07:58.602Z,17.40
2022-09-22T22:10:28.313Z,17.40
2022-09-22T22:12:56.665Z,17.40
2022-09-22T22:15:25.033Z,17.40
2022-09-22T22:17:55.564Z,17.40
2022-09-22T22:20:24.391Z,17.30
2022-09-22T22:22:52.618Z,17.30
2022-09-22T22:25:20.876Z,17.40
2022-09-22T22:27:50.497Z,17.30
2022-09-22T22:30:19.172Z,17.30
2022-09-22T22:32:47.624Z,17.30
2022-09-22T22:35:16.098Z,17.30
2022-09-22T22:37:45.766Z,17.30
2022-09-22T22:40:14.185Z,17.30
2022-09-22T22:42:42.475Z,17.10
2022-09-22T22:45:12.404Z,17.20
2022-09-22T22:47:40.672Z,17.20
2022-09-22T22:50:10.984Z,17.10
2022-09-22T22:52:42.197Z,17.20
2022-09-22T22:55:10.811Z,17.20
2022-09-22T22:57:39.048Z,17.20
2022-09-22T23:00:09.326Z,17.20
2022-09-22T23:02:39.379Z,17.10
2022-09-22T23:05:09.022Z,17.10
2022-09-22T23:07:38.313Z,17.00
2022-09-22T23:10:08.109Z,17.00
2022-09-22T23:12:40.255Z,17.00
2022-09-22T23:15:10.707Z,17.00
2022-09-22T23:17:40.462Z,17.10
2022-09-22T23:20:10.205Z,17.00
2022-09-22T23:22:38.458Z,17.00
2022-09-22T23:25:07.390Z,17.00
2022-09-22T23:27:35.614Z,16.90
2022-09-22T23:30:03.963Z,16.90
2022-09-22T23:32:32.190Z,16.70
2022-09-22T23:35:01.794Z,16.80
2022-09-22T23:37:30.063Z,16.80
2022-09-22T23:39:58.361Z,16.80
2022-09-22T23:42:26.647Z,16.90
2022-09-22T23:44:54.901Z,16.80
2022-09-22T23:47:23.154Z,16.90
2022-09-22T23:49:51.409Z,16.80
2022-09-22T23:52:22.517Z,16.80
2022-09-22T23:54:51.052Z,16.90
2022-09-22T23:57:19.269Z,16.90
2022-09-22T23:59:47.537Z,16.90
